Currently 66°F in Moreno Valley, California, USA
66°F
80°F / 48°F
5 mph W
0.00"
Wednesday, October 20, 2021 6:53 PM PDT

Moreno Valley, California Weather Summary
Last 36 Hours

Temperature Winds Hourly Humidity Dewpoint
Time Report Norm Report Norm Max Gusts Precip. Rpt. Norm Rpt. Norm Pressure
1Wed 06:53 PM  66.4°F  71°F  5 mph W  3 mph  10 mph  0.00"  58%  51%  51°F  51°F  30.00"
Wed 06:00 PM  70.0°F  75°F  3 mph W  4 mph  10 mph  0.00"  50%  45%  50°F  51°F  29.99"
Wed 05:00 PM  76.7°F  80°F  5 mph W  5 mph  12 mph  0.00"  39%  38%  49°F  51°F  29.97"
Wed 04:00 PM  78.9°F  82°F  6 mph W  5 mph  13 mph  0.00"  31%  35%  45°F  50°F  29.97"
Wed 03:00 PM  79.3°F  83°F  5 mph W  5 mph  10 mph  0.00"  33%  33%  47°F  50°F  29.97"
2Wed 02:23 PM  79.7°F  82°F  4 mph NW  5 mph  10 mph  ----  34%  33%  48°F  50°F  29.98"
Wed 02:00 PM  79.3°F  82°F  4 mph W  5 mph  12 mph  0.00"  35%  34%  49°F  50°F  29.99"
Wed 01:00 PM  76.2°F  80°F  2 mph W  4 mph  8 mph  0.00"  37%  37%  47°F  51°F  30.01"
Wed 12:00 PM  72.4°F  78°F  2 mph W  3 mph  10 mph  0.00"  46%  41%  50°F  51°F  30.04"
Wed 11:00 AM  68.3°F  75°F  calm  3 mph  7 mph  0.00"  53%  46%  50°F  52°F  30.06"
Wed 10:00 AM  63.4°F  72°F  calm  2 mph  5 mph  0.00"  67%  53%  52°F  53°F  30.06"
Wed 09:00 AM  59.0°F  68°F  calm  1 mph  4 mph  0.00"  81%  59%  53°F  53°F  30.05"
Wed 08:00 AM  53.6°F  63°F  calm  1 mph  none  0.00"  89%  64%  50°F  50°F  30.04"
Wed 07:00 AM  48.6°F  60°F  calm  1 mph  none  0.00"  94%  66%  47°F  48°F  30.03"
Wed 06:00 AM  48.3°F  61°F  calm  1 mph  none  0.00"  95%  65%  47°F  48°F  30.02"
3Wed 05:11 AM  47.8°F  61°F  calm  1 mph  none  ----  95%  65%  46°F  49°F  30.01"
Wed 05:00 AM  47.9°F  61°F  calm  1 mph  none  0.00"  94%  65%  46°F  49°F  30.01"
Wed 04:00 AM  48.4°F  61°F  calm  1 mph  none  0.00"  94%  65%  47°F  49°F  30.00"
Wed 03:00 AM  49.0°F  62°F  calm  1 mph  none  0.00"  93%  65%  47°F  49°F  30.01"
Wed 02:00 AM  50.3°F  62°F  calm  1 mph  none  0.00"  91%  65%  48°F  50°F  30.01"
Wed 01:00 AM  50.5°F  63°F  calm  1 mph  none  0.00"  90%  65%  48°F  50°F  30.01"
Wed 12:00 AM  52.1°F  63°F  calm  1 mph  6 mph  0.00"  88%  64%  48°F  50°F  30.01"
Tue 11:00 PM  54.2°F  64°F  calm  1 mph  7 mph  0.00"  85%  63%  50°F  51°F  30.01"
Tue 10:00 PM  54.3°F  65°F  calm  1 mph  4 mph  0.00"  83%  61%  49°F  51°F  29.99"
Tue 09:00 PM  57.7°F  67°F  calm  1 mph  9 mph  0.00"  76%  59%  50°F  51°F  29.97"
Tue 08:00 PM  59.8°F  69°F  5 mph SW  2 mph  9 mph  0.00"  74%  55%  51°F  52°F  29.94"
Tue 07:00 PM  63.0°F  71°F  1 mph W  3 mph  9 mph  0.00"  64%  51%  50°F  52°F  29.92"
Tue 06:00 PM  67.7°F  75°F  2 mph NW  4 mph  8 mph  0.00"  42%  45%  43°F  52°F  29.91"
Tue 05:00 PM  71.1°F  80°F  1 mph W  5 mph  11 mph  0.00"  38%  38%  43°F  51°F  29.91"
Tue 04:00 PM  74.0°F  82°F  4 mph W  5 mph  12 mph  0.00"  38%  35%  46°F  51°F  29.92"
Tue 03:00 PM  73.1°F  83°F  3 mph W  5 mph  10 mph  0.00"  41%  33%  47°F  50°F  29.92"
Tue 02:00 PM  69.8°F  83°F  1 mph SW  5 mph  9 mph  0.00"  50%  33%  50°F  50°F  29.93"
Tue 01:00 PM  67.8°F  81°F  4 mph S  4 mph  8 mph  0.00"  54%  36%  50°F  50°F  29.96"
Tue 12:00 PM  63.4°F  78°F  2 mph S  3 mph  9 mph  0.00"  61%  40%  49°F  51°F  29.99"
Tue 11:00 AM  59.7°F  75°F  3 mph S  3 mph  6 mph  0.00"  71%  45%  50°F  52°F  30.00"
Tue 10:00 AM  56.8°F  72°F  1 mph SE  2 mph  5 mph  0.00"  83%  52%  51°F  53°F  29.99"
Tue 09:00 AM  53.1°F  69°F  2 mph S  1 mph  5 mph  0.00"  92%  58%  51°F  53°F  29.98"
Tue 08:00 AM  48.4°F  64°F  calm  1 mph  none  0.00"  96%  63%  47°F  50°F  29.96"
Tue 07:00 AM  44.2°F  60°F  calm  1 mph  none  0.00"  96%  65%  43°F  48°F  29.94"

  1. Current weather data. No green row appears if the current weather data is also the high or low for the current day.
  2. High temperature for the current day.
  3. Low temperature for the current day.

The Moreno Valley, California weather pages are a service of WeatherCurrents. Moreno Valley is located in Southern California's Inland Empire, east of Riverside and north of Perris, along the State Route 60 freeway.
Copyright ©2021  WeatherCurrents. All rights reserved. - Submit questions and comments - Privacy Policy

This page automatically refreshes every 10 minutes.